Аэропорт: Хомутово. Южно-Сахалинск

ICAO: UHSS

METAR:
2019-11-21 09:30:00
UHSS 210930Z 17003MPS 9999 -SHSN BKN032CB M04/M07 Q1023 R01/290060 NOSIG RMK MT OBSC QFE766/1021
METAR:
2019-11-21 07:41:00
TAF UHSS 210741Z 2109/2215 26003MPS 9999 BKN030CB